sensor_id;sensor_type;location;lat;lon;timestamp;P1;durP1;ratioP1;P2;durP2;ratioP2
17145;SDS011;8688;54.444;18.444;2023-03-14T00:01:08;8.27;;;4.97;;
17145;SDS011;8688;54.444;18.444;2023-03-14T00:03:36;7.73;;;5.23;;
17145;SDS011;8688;54.444;18.444;2023-03-14T00:06:04;8.53;;;5.23;;
17145;SDS011;8688;54.444;18.444;2023-03-14T00:08:33;11.10;;;6.40;;
17145;SDS011;8688;54.444;18.444;2023-03-14T00:11:04;9.15;;;6.15;;
17145;SDS011;8688;54.444;18.444;2023-03-14T00:13:33;10.20;;;5.90;;
17145;SDS011;8688;54.444;18.444;2023-03-14T00:16:05;9.77;;;5.33;;
17145;SDS011;8688;54.444;18.444;2023-03-14T00:18:34;10.27;;;4.75;;
17145;SDS011;8688;54.444;18.444;2023-03-14T00:21:03;10.33;;;5.70;;
17145;SDS011;8688;54.444;18.444;2023-03-14T00:23:32;9.77;;;4.77;;
17145;SDS011;8688;54.444;18.444;2023-03-14T00:26:01;7.95;;;5.78;;
17145;SDS011;8688;54.444;18.444;2023-03-14T00:28:30;8.63;;;5.80;;
17145;SDS011;8688;54.444;18.444;2023-03-14T00:30:58;9.80;;;5.60;;
17145;SDS011;8688;54.444;18.444;2023-03-14T00:33:26;8.68;;;5.43;;
17145;SDS011;8688;54.444;18.444;2023-03-14T00:35:55;9.80;;;5.67;;
17145;SDS011;8688;54.444;18.444;2023-03-14T00:38:23;8.57;;;5.65;;
17145;SDS011;8688;54.444;18.444;2023-03-14T00:40:50;9.60;;;5.75;;
17145;SDS011;8688;54.444;18.444;2023-03-14T00:43:19;7.13;;;4.75;;
17145;SDS011;8688;54.444;18.444;2023-03-14T00:45:48;9.57;;;5.13;;
17145;SDS011;8688;54.444;18.444;2023-03-14T00:48:16;11.82;;;6.25;;
17145;SDS011;8688;54.444;18.444;2023-03-14T00:50:45;7.77;;;4.77;;
17145;SDS011;8688;54.444;18.444;2023-03-14T00:53:13;10.98;;;5.97;;
17145;SDS011;8688;54.444;18.444;2023-03-14T00:55:40;8.13;;;4.70;;
17145;SDS011;8688;54.444;18.444;2023-03-14T00:58:09;11.97;;;5.30;;
17145;SDS011;8688;54.444;18.444;2023-03-14T01:00:38;10.98;;;5.65;;
17145;SDS011;8688;54.444;18.444;2023-03-14T01:03:06;9.90;;;5.35;;
17145;SDS011;8688;54.444;18.444;2023-03-14T01:05:35;8.35;;;5.45;;
17145;SDS011;8688;54.444;18.444;2023-03-14T01:08:04;9.40;;;5.40;;
17145;SDS011;8688;54.444;18.444;2023-03-14T01:10:33;8.15;;;4.28;;
17145;SDS011;8688;54.444;18.444;2023-03-14T01:13:01;6.40;;;4.93;;
17145;SDS011;8688;54.444;18.444;2023-03-14T01:15:28;9.65;;;5.32;;
17145;SDS011;8688;54.444;18.444;2023-03-14T01:17:56;9.57;;;5.45;;
17145;SDS011;8688;54.444;18.444;2023-03-14T01:20:23;10.68;;;6.00;;
17145;SDS011;8688;54.444;18.444;2023-03-14T01:22:51;7.25;;;4.57;;
17145;SDS011;8688;54.444;18.444;2023-03-14T01:25:20;9.18;;;5.35;;
17145;SDS011;8688;54.444;18.444;2023-03-14T01:27:47;11.15;;;5.85;;
17145;SDS011;8688;54.444;18.444;2023-03-14T01:30:15;7.97;;;3.40;;
17145;SDS011;8688;54.444;18.444;2023-03-14T01:32:42;5.80;;;4.13;;
17145;SDS011;8688;54.444;18.444;2023-03-14T01:35:10;7.03;;;4.82;;
17145;SDS011;8688;54.444;18.444;2023-03-14T01:37:37;10.87;;;5.00;;
17145;SDS011;8688;54.444;18.444;2023-03-14T01:40:05;8.93;;;5.28;;
17145;SDS011;8688;54.444;18.444;2023-03-14T01:42:35;8.10;;;5.05;;
17145;SDS011;8688;54.444;18.444;2023-03-14T01:45:02;8.05;;;4.38;;
17145;SDS011;8688;54.444;18.444;2023-03-14T01:47:30;10.10;;;5.82;;
17145;SDS011;8688;54.444;18.444;2023-03-14T01:49:58;8.27;;;5.33;;
17145;SDS011;8688;54.444;18.444;2023-03-14T01:52:31;7.73;;;4.53;;
17145;SDS011;8688;54.444;18.444;2023-03-14T01:55:03;6.37;;;4.37;;
17145;SDS011;8688;54.444;18.444;2023-03-14T01:57:35;8.15;;;4.47;;
17145;SDS011;8688;54.444;18.444;2023-03-14T02:00:07;9.73;;;4.90;;
17145;SDS011;8688;54.444;18.444;2023-03-14T02:02:39;6.65;;;4.65;;
17145;SDS011;8688;54.444;18.444;2023-03-14T02:05:10;9.40;;;4.97;;
17145;SDS011;8688;54.444;18.444;2023-03-14T02:07:41;8.43;;;4.10;;
17145;SDS011;8688;54.444;18.444;2023-03-14T02:10:13;9.05;;;4.60;;
17145;SDS011;8688;54.444;18.444;2023-03-14T02:12:45;7.27;;;4.80;;
17145;SDS011;8688;54.444;18.444;2023-03-14T02:15:13;7.40;;;4.60;;
17145;SDS011;8688;54.444;18.444;2023-03-14T02:17:41;10.05;;;5.32;;
17145;SDS011;8688;54.444;18.444;2023-03-14T02:20:13;8.05;;;4.53;;
17145;SDS011;8688;54.444;18.444;2023-03-14T02:22:51;7.97;;;4.63;;
17145;SDS011;8688;54.444;18.444;2023-03-14T02:25:20;7.83;;;4.80;;
17145;SDS011;8688;54.444;18.444;2023-03-14T02:27:55;8.32;;;4.63;;
17145;SDS011;8688;54.444;18.444;2023-03-14T02:30:24;7.30;;;4.70;;
17145;SDS011;8688;54.444;18.444;2023-03-14T02:32:54;8.80;;;5.30;;
17145;SDS011;8688;54.444;18.444;2023-03-14T02:35:26;8.75;;;4.75;;
17145;SDS011;8688;54.444;18.444;2023-03-14T02:37:57;12.37;;;4.80;;
17145;SDS011;8688;54.444;18.444;2023-03-14T02:40:29;6.07;;;4.27;;
17145;SDS011;8688;54.444;18.444;2023-03-14T02:42:58;7.15;;;4.60;;
17145;SDS011;8688;54.444;18.444;2023-03-14T02:45:29;7.47;;;4.30;;
17145;SDS011;8688;54.444;18.444;2023-03-14T02:48:09;9.40;;;4.53;;
17145;SDS011;8688;54.444;18.444;2023-03-14T02:50:45;6.60;;;4.80;;
17145;SDS011;8688;54.444;18.444;2023-03-14T02:53:16;7.95;;;4.85;;
17145;SDS011;8688;54.444;18.444;2023-03-14T02:55:45;9.93;;;4.17;;
17145;SDS011;8688;54.444;18.444;2023-03-14T02:58:15;7.53;;;4.13;;
17145;SDS011;8688;54.444;18.444;2023-03-14T03:00:44;6.20;;;4.10;;
17145;SDS011;8688;54.444;18.444;2023-03-14T03:03:12;7.90;;;4.60;;
17145;SDS011;8688;54.444;18.444;2023-03-14T03:05:40;6.60;;;4.22;;
17145;SDS011;8688;54.444;18.444;2023-03-14T03:08:09;9.17;;;4.23;;
17145;SDS011;8688;54.444;18.444;2023-03-14T03:10:36;7.50;;;4.37;;
17145;SDS011;8688;54.444;18.444;2023-03-14T03:13:04;5.77;;;3.80;;
17145;SDS011;8688;54.444;18.444;2023-03-14T03:15:33;7.22;;;4.53;;
17145;SDS011;8688;54.444;18.444;2023-03-14T03:18:01;6.65;;;4.53;;
17145;SDS011;8688;54.444;18.444;2023-03-14T03:20:28;7.70;;;4.65;;
17145;SDS011;8688;54.444;18.444;2023-03-14T03:22:56;11.02;;;4.68;;
17145;SDS011;8688;54.444;18.444;2023-03-14T03:25:24;6.90;;;4.50;;
17145;SDS011;8688;54.444;18.444;2023-03-14T03:27:52;6.50;;;4.18;;
17145;SDS011;8688;54.444;18.444;2023-03-14T03:30:20;6.43;;;4.20;;
17145;SDS011;8688;54.444;18.444;2023-03-14T03:32:49;6.20;;;4.13;;
17145;SDS011;8688;54.444;18.444;2023-03-14T03:35:16;7.83;;;4.33;;
17145;SDS011;8688;54.444;18.444;2023-03-14T03:37:44;7.57;;;4.60;;
17145;SDS011;8688;54.444;18.444;2023-03-14T03:40:11;5.97;;;4.07;;
17145;SDS011;8688;54.444;18.444;2023-03-14T03:42:39;7.67;;;3.97;;
17145;SDS011;8688;54.444;18.444;2023-03-14T03:45:07;6.50;;;4.28;;
17145;SDS011;8688;54.444;18.444;2023-03-14T03:47:35;7.83;;;4.33;;
17145;SDS011;8688;54.444;18.444;2023-03-14T03:50:04;5.53;;;3.77;;
17145;SDS011;8688;54.444;18.444;2023-03-14T03:52:32;6.70;;;3.90;;
17145;SDS011;8688;54.444;18.444;2023-03-14T03:55:00;6.73;;;4.40;;
17145;SDS011;8688;54.444;18.444;2023-03-14T03:57:27;7.97;;;4.00;;
17145;SDS011;8688;54.444;18.444;2023-03-14T03:59:55;6.45;;;3.85;;
17145;SDS011;8688;54.444;18.444;2023-03-14T04:02:22;6.47;;;3.90;;
17145;SDS011;8688;54.444;18.444;2023-03-14T04:04:49;6.30;;;3.90;;
17145;SDS011;8688;54.444;18.444;2023-03-14T04:07:18;5.55;;;4.00;;
17145;SDS011;8688;54.444;18.444;2023-03-14T04:09:46;7.23;;;4.10;;
17145;SDS011;8688;54.444;18.444;2023-03-14T04:12:13;7.27;;;4.20;;
17145;SDS011;8688;54.444;18.444;2023-03-14T04:14:41;6.23;;;3.57;;
17145;SDS011;8688;54.444;18.444;2023-03-14T04:17:09;6.27;;;3.83;;
17145;SDS011;8688;54.444;18.444;2023-03-14T04:19:36;6.23;;;3.83;;
17145;SDS011;8688;54.444;18.444;2023-03-14T04:22:04;6.23;;;3.53;;
17145;SDS011;8688;54.444;18.444;2023-03-14T04:24:33;7.18;;;3.97;;
17145;SDS011;8688;54.444;18.444;2023-03-14T04:27:00;6.20;;;3.67;;
17145;SDS011;8688;54.444;18.444;2023-03-14T04:29:28;7.25;;;3.60;;
17145;SDS011;8688;54.444;18.444;2023-03-14T04:31:55;7.57;;;3.70;;
17145;SDS011;8688;54.444;18.444;2023-03-14T04:34:22;6.87;;;3.87;;
17145;SDS011;8688;54.444;18.444;2023-03-14T04:36:50;4.70;;;3.30;;
17145;SDS011;8688;54.444;18.444;2023-03-14T04:39:17;6.70;;;3.60;;
17145;SDS011;8688;54.444;18.444;2023-03-14T04:41:46;8.27;;;3.80;;
17145;SDS011;8688;54.444;18.444;2023-03-14T04:44:14;6.93;;;3.92;;
17145;SDS011;8688;54.444;18.444;2023-03-14T04:46:41;6.15;;;3.90;;
17145;SDS011;8688;54.444;18.444;2023-03-14T04:49:09;5.82;;;3.60;;
17145;SDS011;8688;54.444;18.444;2023-03-14T04:51:36;11.07;;;3.97;;
17145;SDS011;8688;54.444;18.444;2023-03-14T04:54:04;7.17;;;3.40;;
17145;SDS011;8688;54.444;18.444;2023-03-14T04:56:31;5.43;;;3.40;;
17145;SDS011;8688;54.444;18.444;2023-03-14T04:59:00;7.57;;;3.63;;
17145;SDS011;8688;54.444;18.444;2023-03-14T05:01:28;5.77;;;3.40;;
17145;SDS011;8688;54.444;18.444;2023-03-14T05:03:55;6.30;;;3.33;;
17145;SDS011;8688;54.444;18.444;2023-03-14T05:06:23;7.47;;;3.42;;
17145;SDS011;8688;54.444;18.444;2023-03-14T05:08:50;6.60;;;3.85;;
17145;SDS011;8688;54.444;18.444;2023-03-14T05:11:18;4.90;;;2.92;;
17145;SDS011;8688;54.444;18.444;2023-03-14T05:13:46;6.45;;;3.70;;
17145;SDS011;8688;54.444;18.444;2023-03-14T05:16:14;6.07;;;3.60;;
17145;SDS011;8688;54.444;18.444;2023-03-14T05:18:42;7.88;;;3.65;;
17145;SDS011;8688;54.444;18.444;2023-03-14T05:21:09;7.23;;;3.60;;
17145;SDS011;8688;54.444;18.444;2023-03-14T05:23:37;7.03;;;3.80;;
17145;SDS011;8688;54.444;18.444;2023-03-14T05:26:04;6.57;;;3.63;;
17145;SDS011;8688;54.444;18.444;2023-03-14T05:28:32;4.97;;;3.37;;
17145;SDS011;8688;54.444;18.444;2023-03-14T05:31:00;5.20;;;3.05;;
17145;SDS011;8688;54.444;18.444;2023-03-14T05:33:29;4.63;;;3.10;;
17145;SDS011;8688;54.444;18.444;2023-03-14T05:35:56;5.97;;;3.50;;
17145;SDS011;8688;54.444;18.444;2023-03-14T05:38:23;7.15;;;3.53;;
17145;SDS011;8688;54.444;18.444;2023-03-14T05:40:51;6.63;;;3.47;;
17145;SDS011;8688;54.444;18.444;2023-03-14T05:43:18;7.55;;;3.45;;
17145;SDS011;8688;54.444;18.444;2023-03-14T05:45:46;5.80;;;3.30;;
17145;SDS011;8688;54.444;18.444;2023-03-14T05:48:13;6.53;;;3.70;;
17145;SDS011;8688;54.444;18.444;2023-03-14T05:50:43;6.20;;;3.60;;
17145;SDS011;8688;54.444;18.444;2023-03-14T05:53:10;6.13;;;3.43;;
17145;SDS011;8688;54.444;18.444;2023-03-14T05:55:38;5.90;;;3.13;;
17145;SDS011;8688;54.444;18.444;2023-03-14T05:58:06;5.63;;;3.07;;
17145;SDS011;8688;54.444;18.444;2023-03-14T06:00:33;6.40;;;3.17;;
17145;SDS011;8688;54.444;18.444;2023-03-14T06:03:00;8.20;;;3.53;;
17145;SDS011;8688;54.444;18.444;2023-03-14T06:05:28;5.07;;;3.30;;
17145;SDS011;8688;54.444;18.444;2023-03-14T06:07:57;6.05;;;2.92;;
17145;SDS011;8688;54.444;18.444;2023-03-14T06:10:24;8.40;;;3.50;;
17145;SDS011;8688;54.444;18.444;2023-03-14T06:12:51;7.72;;;3.22;;
17145;SDS011;8688;54.444;18.444;2023-03-14T06:15:19;5.10;;;3.05;;
17145;SDS011;8688;54.444;18.444;2023-03-14T06:17:46;5.32;;;3.33;;
17145;SDS011;8688;54.444;18.444;2023-03-14T06:20:14;5.70;;;3.28;;
17145;SDS011;8688;54.444;18.444;2023-03-14T06:22:42;5.43;;;3.17;;
17145;SDS011;8688;54.444;18.444;2023-03-14T06:25:10;8.70;;;3.17;;
17145;SDS011;8688;54.444;18.444;2023-03-14T06:27:38;6.32;;;3.10;;
17145;SDS011;8688;54.444;18.444;2023-03-14T06:30:06;6.72;;;3.13;;
17145;SDS011;8688;54.444;18.444;2023-03-14T06:32:43;5.10;;;3.00;;
17145;SDS011;8688;54.444;18.444;2023-03-14T06:35:14;4.32;;;2.90;;
17145;SDS011;8688;54.444;18.444;2023-03-14T06:37:41;5.75;;;3.33;;
17145;SDS011;8688;54.444;18.444;2023-03-14T06:40:11;5.63;;;3.35;;
17145;SDS011;8688;54.444;18.444;2023-03-14T06:42:42;4.95;;;3.15;;
17145;SDS011;8688;54.444;18.444;2023-03-14T06:45:10;4.05;;;2.85;;
17145;SDS011;8688;54.444;18.444;2023-03-14T06:47:38;5.15;;;3.08;;
17145;SDS011;8688;54.444;18.444;2023-03-14T06:50:06;4.15;;;2.80;;
17145;SDS011;8688;54.444;18.444;2023-03-14T06:52:35;5.82;;;3.05;;
17145;SDS011;8688;54.444;18.444;2023-03-14T06:55:02;6.38;;;3.20;;
17145;SDS011;8688;54.444;18.444;2023-03-14T06:57:32;3.75;;;2.58;;
17145;SDS011;8688;54.444;18.444;2023-03-14T06:59:59;4.95;;;3.08;;
17145;SDS011;8688;54.444;18.444;2023-03-14T07:02:27;7.60;;;2.70;;
17145;SDS011;8688;54.444;18.444;2023-03-14T07:04:54;5.75;;;3.08;;
17145;SDS011;8688;54.444;18.444;2023-03-14T07:07:22;4.25;;;2.72;;
17145;SDS011;8688;54.444;18.444;2023-03-14T07:09:49;5.32;;;2.90;;
17145;SDS011;8688;54.444;18.444;2023-03-14T07:12:16;4.63;;;2.80;;
17145;SDS011;8688;54.444;18.444;2023-03-14T07:14:45;7.95;;;3.35;;
17145;SDS011;8688;54.444;18.444;2023-03-14T07:17:13;6.03;;;3.10;;
17145;SDS011;8688;54.444;18.444;2023-03-14T07:19:40;4.55;;;3.10;;
17145;SDS011;8688;54.444;18.444;2023-03-14T07:22:08;5.75;;;3.13;;
17145;SDS011;8688;54.444;18.444;2023-03-14T07:24:35;4.22;;;2.88;;
17145;SDS011;8688;54.444;18.444;2023-03-14T07:27:03;4.60;;;2.92;;
17145;SDS011;8688;54.444;18.444;2023-03-14T07:29:30;4.75;;;2.83;;
17145;SDS011;8688;54.444;18.444;2023-03-14T07:31:59;4.80;;;2.75;;
17145;SDS011;8688;54.444;18.444;2023-03-14T07:34:26;5.05;;;3.15;;
17145;SDS011;8688;54.444;18.444;2023-03-14T07:36:54;6.53;;;3.03;;
17145;SDS011;8688;54.444;18.444;2023-03-14T07:39:21;4.38;;;2.92;;
17145;SDS011;8688;54.444;18.444;2023-03-14T07:41:48;5.45;;;3.28;;
17145;SDS011;8688;54.444;18.444;2023-03-14T07:44:16;4.57;;;3.10;;
17145;SDS011;8688;54.444;18.444;2023-03-14T07:46:43;3.97;;;2.95;;
17145;SDS011;8688;54.444;18.444;2023-03-14T07:49:12;4.00;;;2.90;;
17145;SDS011;8688;54.444;18.444;2023-03-14T07:51:39;5.97;;;3.08;;
17145;SDS011;8688;54.444;18.444;2023-03-14T07:54:09;5.15;;;3.55;;
17145;SDS011;8688;54.444;18.444;2023-03-14T07:56:36;5.35;;;3.30;;
17145;SDS011;8688;54.444;18.444;2023-03-14T07:59:04;5.25;;;3.22;;
17145;SDS011;8688;54.444;18.444;2023-03-14T08:01:32;5.95;;;3.15;;
17145;SDS011;8688;54.444;18.444;2023-03-14T08:04:00;4.20;;;2.88;;
17145;SDS011;8688;54.444;18.444;2023-03-14T08:06:28;6.57;;;3.40;;
17145;SDS011;8688;54.444;18.444;2023-03-14T08:08:56;5.50;;;2.83;;
17145;SDS011;8688;54.444;18.444;2023-03-14T08:11:23;6.20;;;3.47;;
17145;SDS011;8688;54.444;18.444;2023-03-14T08:13:51;5.07;;;3.22;;
17145;SDS011;8688;54.444;18.444;2023-03-14T08:16:18;6.25;;;3.30;;
17145;SDS011;8688;54.444;18.444;2023-03-14T08:18:46;4.32;;;3.00;;
17145;SDS011;8688;54.444;18.444;2023-03-14T08:21:14;5.63;;;3.17;;
17145;SDS011;8688;54.444;18.444;2023-03-14T08:23:43;6.90;;;3.30;;
17145;SDS011;8688;54.444;18.444;2023-03-14T08:26:10;4.82;;;3.40;;
17145;SDS011;8688;54.444;18.444;2023-03-14T08:28:37;4.47;;;3.08;;
17145;SDS011;8688;54.444;18.444;2023-03-14T08:31:05;5.20;;;2.90;;
17145;SDS011;8688;54.444;18.444;2023-03-14T08:33:33;3.95;;;3.15;;
17145;SDS011;8688;54.444;18.444;2023-03-14T08:36:00;4.20;;;3.35;;
17145;SDS011;8688;54.444;18.444;2023-03-14T08:38:28;4.50;;;2.88;;
17145;SDS011;8688;54.444;18.444;2023-03-14T08:40:57;3.75;;;2.90;;
17145;SDS011;8688;54.444;18.444;2023-03-14T08:43:26;5.30;;;3.15;;
17145;SDS011;8688;54.444;18.444;2023-03-14T08:45:56;6.63;;;3.00;;
17145;SDS011;8688;54.444;18.444;2023-03-14T08:48:25;5.68;;;3.22;;
17145;SDS011;8688;54.444;18.444;2023-03-14T08:50:54;5.15;;;3.00;;
17145;SDS011;8688;54.444;18.444;2023-03-14T08:53:22;6.00;;;3.00;;
17145;SDS011;8688;54.444;18.444;2023-03-14T08:55:52;4.82;;;3.22;;
17145;SDS011;8688;54.444;18.444;2023-03-14T08:58:21;4.38;;;3.33;;
17145;SDS011;8688;54.444;18.444;2023-03-14T09:00:49;6.53;;;3.80;;
17145;SDS011;8688;54.444;18.444;2023-03-14T09:03:16;5.35;;;3.45;;
17145;SDS011;8688;54.444;18.444;2023-03-14T09:05:44;5.05;;;3.78;;
17145;SDS011;8688;54.444;18.444;2023-03-14T09:08:11;6.72;;;3.42;;
17145;SDS011;8688;54.444;18.444;2023-03-14T09:10:39;5.75;;;3.60;;
17145;SDS011;8688;54.444;18.444;2023-03-14T09:13:07;6.05;;;3.90;;
17145;SDS011;8688;54.444;18.444;2023-03-14T09:15:36;6.43;;;3.80;;
17145;SDS011;8688;54.444;18.444;2023-03-14T09:18:16;9.32;;;4.78;;
17145;SDS011;8688;54.444;18.444;2023-03-14T09:20:43;5.82;;;4.13;;
17145;SDS011;8688;54.444;18.444;2023-03-14T09:23:10;10.13;;;7.35;;
17145;SDS011;8688;54.444;18.444;2023-03-14T09:25:41;6.40;;;3.90;;
17145;SDS011;8688;54.444;18.444;2023-03-14T09:28:20;9.15;;;6.15;;
17145;SDS011;8688;54.444;18.444;2023-03-14T09:30:49;15.43;;;10.52;;
17145;SDS011;8688;54.444;18.444;2023-03-14T09:33:17;7.00;;;4.55;;
17145;SDS011;8688;54.444;18.444;2023-03-14T09:35:47;7.75;;;4.70;;
17145;SDS011;8688;54.444;18.444;2023-03-14T09:38:14;10.30;;;5.75;;
17145;SDS011;8688;54.444;18.444;2023-03-14T09:40:42;9.18;;;5.00;;
17145;SDS011;8688;54.444;18.444;2023-03-14T09:43:10;10.18;;;6.70;;
17145;SDS011;8688;54.444;18.444;2023-03-14T09:45:40;14.32;;;8.18;;
17145;SDS011;8688;54.444;18.444;2023-03-14T09:48:14;20.05;;;12.07;;
17145;SDS011;8688;54.444;18.444;2023-03-14T09:50:43;9.85;;;6.05;;
17145;SDS011;8688;54.444;18.444;2023-03-14T09:53:13;5.35;;;4.30;;
17145;SDS011;8688;54.444;18.444;2023-03-14T09:55:43;10.25;;;6.30;;
17145;SDS011;8688;54.444;18.444;2023-03-14T09:58:16;6.43;;;4.10;;
17145;SDS011;8688;54.444;18.444;2023-03-14T10:00:45;12.32;;;6.75;;
17145;SDS011;8688;54.444;18.444;2023-03-14T10:03:25;5.63;;;4.10;;
17145;SDS011;8688;54.444;18.444;2023-03-14T10:05:55;6.88;;;4.13;;
17145;SDS011;8688;54.444;18.444;2023-03-14T10:08:23;8.13;;;4.82;;
17145;SDS011;8688;54.444;18.444;2023-03-14T10:10:51;7.50;;;4.70;;
17145;SDS011;8688;54.444;18.444;2023-03-14T10:13:20;6.90;;;4.78;;
17145;SDS011;8688;54.444;18.444;2023-03-14T10:15:51;7.57;;;4.25;;
17145;SDS011;8688;54.444;18.444;2023-03-14T10:18:20;6.65;;;3.80;;
17145;SDS011;8688;54.444;18.444;2023-03-14T10:21:01;6.90;;;4.60;;
17145;SDS011;8688;54.444;18.444;2023-03-14T10:23:31;8.63;;;4.57;;
17145;SDS011;8688;54.444;18.444;2023-03-14T10:26:07;10.18;;;5.13;;
17145;SDS011;8688;54.444;18.444;2023-03-14T10:28:39;20.95;;;12.35;;
17145;SDS011;8688;54.444;18.444;2023-03-14T10:31:09;11.68;;;6.00;;
17145;SDS011;8688;54.444;18.444;2023-03-14T10:33:37;9.45;;;4.43;;
17145;SDS011;8688;54.444;18.444;2023-03-14T10:36:19;29.90;;;17.58;;
17145;SDS011;8688;54.444;18.444;2023-03-14T10:38:51;9.60;;;6.10;;
17145;SDS011;8688;54.444;18.444;2023-03-14T10:41:25;4.50;;;3.53;;
17145;SDS011;8688;54.444;18.444;2023-03-14T10:43:57;5.63;;;3.22;;
17145;SDS011;8688;54.444;18.444;2023-03-14T10:46:26;5.93;;;4.20;;
17145;SDS011;8688;54.444;18.444;2023-03-14T10:48:57;6.53;;;4.00;;
17145;SDS011;8688;54.444;18.444;2023-03-14T10:51:27;7.32;;;4.00;;
17145;SDS011;8688;54.444;18.444;2023-03-14T10:53:56;5.13;;;3.40;;
17145;SDS011;8688;54.444;18.444;2023-03-14T10:56:25;6.10;;;4.10;;
17145;SDS011;8688;54.444;18.444;2023-03-14T10:58:55;4.80;;;3.60;;
17145;SDS011;8688;54.444;18.444;2023-03-14T11:01:27;6.68;;;3.72;;
17145;SDS011;8688;54.444;18.444;2023-03-14T11:04:03;5.18;;;3.63;;
17145;SDS011;8688;54.444;18.444;2023-03-14T11:06:52;4.65;;;3.30;;
17145;SDS011;8688;54.444;18.444;2023-03-14T11:09:29;4.85;;;3.30;;
17145;SDS011;8688;54.444;18.444;2023-03-14T11:12:03;6.40;;;3.75;;
17145;SDS011;8688;54.444;18.444;2023-03-14T11:14:46;6.78;;;3.95;;
17145;SDS011;8688;54.444;18.444;2023-03-14T11:17:20;5.35;;;3.42;;
17145;SDS011;8688;54.444;18.444;2023-03-14T11:20:00;5.30;;;3.53;;
17145;SDS011;8688;54.444;18.444;2023-03-14T11:22:43;6.88;;;3.88;;
17145;SDS011;8688;54.444;18.444;2023-03-14T11:25:18;6.45;;;3.58;;
17145;SDS011;8688;54.444;18.444;2023-03-14T11:27:53;6.93;;;4.07;;
17145;SDS011;8688;54.444;18.444;2023-03-14T11:30:29;7.70;;;3.80;;
17145;SDS011;8688;54.444;18.444;2023-03-14T11:33:03;6.97;;;3.40;;
17145;SDS011;8688;54.444;18.444;2023-03-14T11:35:36;4.90;;;3.42;;
17145;SDS011;8688;54.444;18.444;2023-03-14T11:38:16;6.05;;;3.50;;
17145;SDS011;8688;54.444;18.444;2023-03-14T11:40:53;5.03;;;3.55;;
17145;SDS011;8688;54.444;18.444;2023-03-14T11:43:25;6.03;;;3.72;;
17145;SDS011;8688;54.444;18.444;2023-03-14T11:45:57;4.75;;;3.20;;
17145;SDS011;8688;54.444;18.444;2023-03-14T11:48:33;4.80;;;3.15;;
17145;SDS011;8688;54.444;18.444;2023-03-14T11:51:07;3.63;;;2.55;;
17145;SDS011;8688;54.444;18.444;2023-03-14T11:53:43;5.38;;;2.58;;
17145;SDS011;8688;54.444;18.444;2023-03-14T11:56:18;5.80;;;3.22;;
17145;SDS011;8688;54.444;18.444;2023-03-14T11:58:54;5.00;;;3.08;;
17145;SDS011;8688;54.444;18.444;2023-03-14T12:01:27;4.60;;;2.85;;
17145;SDS011;8688;54.444;18.444;2023-03-14T12:04:02;7.13;;;2.95;;
17145;SDS011;8688;54.444;18.444;2023-03-14T12:06:37;3.13;;;2.50;;
17145;SDS011;8688;54.444;18.444;2023-03-14T12:09:12;4.65;;;2.47;;
17145;SDS011;8688;54.444;18.444;2023-03-14T12:11:42;5.50;;;2.60;;
17145;SDS011;8688;54.444;18.444;2023-03-14T12:14:17;6.28;;;2.80;;
17145;SDS011;8688;54.444;18.444;2023-03-14T12:16:47;5.70;;;2.97;;
17145;SDS011;8688;54.444;18.444;2023-03-14T12:19:25;6.15;;;3.10;;
17145;SDS011;8688;54.444;18.444;2023-03-14T12:21:59;4.38;;;2.50;;
17145;SDS011;8688;54.444;18.444;2023-03-14T12:24:34;4.57;;;2.80;;
17145;SDS011;8688;54.444;18.444;2023-03-14T12:27:04;4.85;;;3.00;;
17145;SDS011;8688;54.444;18.444;2023-03-14T12:29:34;6.13;;;3.10;;
17145;SDS011;8688;54.444;18.444;2023-03-14T12:32:25;7.30;;;2.75;;
17145;SDS011;8688;54.444;18.444;2023-03-14T12:34:53;5.45;;;2.75;;
17145;SDS011;8688;54.444;18.444;2023-03-14T12:37:25;7.18;;;2.90;;
17145;SDS011;8688;54.444;18.444;2023-03-14T12:40:13;6.43;;;2.88;;
17145;SDS011;8688;54.444;18.444;2023-03-14T12:42:51;5.60;;;2.80;;
17145;SDS011;8688;54.444;18.444;2023-03-14T12:45:28;7.50;;;3.10;;
17145;SDS011;8688;54.444;18.444;2023-03-14T12:48:00;4.28;;;2.30;;
17145;SDS011;8688;54.444;18.444;2023-03-14T12:50:42;3.33;;;2.30;;
17145;SDS011;8688;54.444;18.444;2023-03-14T12:59:21;5.22;;;2.00;;
17145;SDS011;8688;54.444;18.444;2023-03-14T13:02:09;5.93;;;2.15;;
17145;SDS011;8688;54.444;18.444;2023-03-14T13:04:50;5.90;;;2.67;;
17145;SDS011;8688;54.444;18.444;2023-03-14T13:07:36;6.93;;;2.30;;
17145;SDS011;8688;54.444;18.444;2023-03-14T13:10:30;5.18;;;2.35;;
17145;SDS011;8688;54.444;18.444;2023-03-14T13:13:14;4.50;;;2.28;;
17145;SDS011;8688;54.444;18.444;2023-03-14T13:15:47;5.38;;;2.17;;
17145;SDS011;8688;54.444;18.444;2023-03-14T13:18:17;6.00;;;1.98;;
17145;SDS011;8688;54.444;18.444;2023-03-14T13:20:53;5.28;;;2.00;;
17145;SDS011;8688;54.444;18.444;2023-03-14T13:23:24;5.20;;;2.22;;
17145;SDS011;8688;54.444;18.444;2023-03-14T13:25:53;3.33;;;2.00;;
17145;SDS011;8688;54.444;18.444;2023-03-14T13:28:22;5.40;;;2.03;;
17145;SDS011;8688;54.444;18.444;2023-03-14T13:30:50;3.97;;;2.10;;
17145;SDS011;8688;54.444;18.444;2023-03-14T13:33:22;4.47;;;2.05;;
17145;SDS011;8688;54.444;18.444;2023-03-14T13:35:54;6.72;;;2.08;;
17145;SDS011;8688;54.444;18.444;2023-03-14T13:38:23;5.30;;;1.88;;
17145;SDS011;8688;54.444;18.444;2023-03-14T13:40:53;4.97;;;2.00;;
17145;SDS011;8688;54.444;18.444;2023-03-14T13:43:27;4.93;;;1.70;;
17145;SDS011;8688;54.444;18.444;2023-03-14T13:46:01;3.80;;;1.85;;
17145;SDS011;8688;54.444;18.444;2023-03-14T13:48:30;5.10;;;2.10;;
17145;SDS011;8688;54.444;18.444;2023-03-14T13:51:00;6.40;;;1.98;;
17145;SDS011;8688;54.444;18.444;2023-03-14T13:53:31;7.55;;;2.10;;
17145;SDS011;8688;54.444;18.444;2023-03-14T13:56:01;3.63;;;2.10;;
17145;SDS011;8688;54.444;18.444;2023-03-14T13:58:31;6.65;;;2.03;;
17145;SDS011;8688;54.444;18.444;2023-03-14T14:01:00;4.93;;;2.00;;
17145;SDS011;8688;54.444;18.444;2023-03-14T14:03:37;5.70;;;1.92;;
17145;SDS011;8688;54.444;18.444;2023-03-14T14:06:08;3.83;;;2.17;;
17145;SDS011;8688;54.444;18.444;2023-03-14T14:08:53;5.13;;;2.10;;
17145;SDS011;8688;54.444;18.444;2023-03-14T14:11:49;3.90;;;2.10;;
17145;SDS011;8688;54.444;18.444;2023-03-14T14:14:23;5.13;;;2.05;;
17145;SDS011;8688;54.444;18.444;2023-03-14T14:16:55;3.85;;;1.73;;
17145;SDS011;8688;54.444;18.444;2023-03-14T14:19:25;3.80;;;1.80;;
17145;SDS011;8688;54.444;18.444;2023-03-14T14:21:54;4.57;;;1.92;;
17145;SDS011;8688;54.444;18.444;2023-03-14T14:24:23;4.78;;;1.80;;
17145;SDS011;8688;54.444;18.444;2023-03-14T14:26:58;3.97;;;1.80;;
17145;SDS011;8688;54.444;18.444;2023-03-14T14:29:29;4.22;;;1.95;;
17145;SDS011;8688;54.444;18.444;2023-03-14T14:32:01;4.03;;;1.75;;
17145;SDS011;8688;54.444;18.444;2023-03-14T14:34:29;5.57;;;2.10;;
17145;SDS011;8688;54.444;18.444;2023-03-14T14:37:14;6.60;;;2.28;;
17145;SDS011;8688;54.444;18.444;2023-03-14T14:39:48;7.45;;;2.15;;
17145;SDS011;8688;54.444;18.444;2023-03-14T14:42:18;5.55;;;1.90;;
17145;SDS011;8688;54.444;18.444;2023-03-14T14:44:49;3.92;;;1.85;;
17145;SDS011;8688;54.444;18.444;2023-03-14T14:47:18;5.32;;;2.00;;
17145;SDS011;8688;54.444;18.444;2023-03-14T14:49:48;3.03;;;1.67;;
17145;SDS011;8688;54.444;18.444;2023-03-14T14:52:18;5.20;;;1.92;;
17145;SDS011;8688;54.444;18.444;2023-03-14T14:54:47;6.40;;;1.77;;
17145;SDS011;8688;54.444;18.444;2023-03-14T14:57:20;5.53;;;2.10;;
17145;SDS011;8688;54.444;18.444;2023-03-14T14:59:50;3.60;;;1.88;;
17145;SDS011;8688;54.444;18.444;2023-03-14T15:02:27;5.53;;;2.08;;
17145;SDS011;8688;54.444;18.444;2023-03-14T15:04:57;4.93;;;2.20;;
17145;SDS011;8688;54.444;18.444;2023-03-14T15:07:24;7.53;;;2.30;;
17145;SDS011;8688;54.444;18.444;2023-03-14T15:09:51;6.18;;;2.40;;